createdAt,value
2017-05-25T00:00:10.192Z,13.63
2017-05-25T00:00:51.090Z,13.65
2017-05-25T00:01:32.000Z,13.5
2017-05-25T00:02:12.896Z,13.56
2017-05-25T00:02:53.817Z,13.5
2017-05-25T00:03:35.295Z,13.52
2017-05-25T00:04:16.187Z,13.56
2017-05-25T00:04:57.075Z,13.47
2017-05-25T00:05:37.972Z,13.52
2017-05-25T00:06:18.865Z,13.49
2017-05-25T00:06:59.776Z,13.46
2017-05-25T00:07:40.677Z,13.44
2017-05-25T00:08:21.578Z,13.42
2017-05-25T00:09:02.472Z,13.46
2017-05-25T00:09:43.396Z,13.39
2017-05-25T00:11:16.593Z,13.46
2017-05-25T00:11:57.483Z,13.41
2017-05-25T00:12:38.364Z,13.39
2017-05-25T00:13:19.250Z,13.44
2017-05-25T00:14:00.148Z,13.41
2017-05-25T00:14:41.038Z,13.41
2017-05-25T00:15:21.964Z,13.38
2017-05-25T00:16:02.855Z,13.38
2017-05-25T00:16:43.770Z,13.31
2017-05-25T00:17:24.634Z,13.38
2017-05-25T00:18:05.530Z,13.37
2017-05-25T00:19:38.764Z,13.39
2017-05-25T00:20:19.662Z,13.39
2017-05-25T00:21:00.565Z,13.38
2017-05-25T00:21:41.458Z,13.39
2017-05-25T00:22:22.331Z,13.38
2017-05-25T00:23:03.209Z,13.35
2017-05-25T00:23:44.088Z,13.41
2017-05-25T00:24:24.974Z,13.47
2017-05-25T00:25:05.885Z,13.33
2017-05-25T00:25:46.764Z,13.25
2017-05-25T00:26:27.683Z,13.2
2017-05-25T00:27:08.569Z,13.23
2017-05-25T00:27:49.467Z,13.23
2017-05-25T00:28:30.365Z,13.35
2017-05-25T00:29:11.255Z,13.3
2017-05-25T00:31:04.922Z,13.33
2017-05-25T00:31:45.889Z,13.25
2017-05-25T00:32:26.712Z,13.31
2017-05-25T00:33:07.593Z,13.2
2017-05-25T00:33:48.487Z,13.16
2017-05-25T00:34:29.376Z,13.2
2017-05-25T00:35:10.250Z,13.2
2017-05-25T00:35:51.146Z,13.2
2017-05-25T00:36:32.118Z,13.23
2017-05-25T00:37:13.008Z,13.27
2017-05-25T00:37:53.888Z,13.25
2017-05-25T00:38:34.777Z,13.28
2017-05-25T00:39:15.673Z,13.27
2017-05-25T00:39:56.561Z,13.28
2017-05-25T00:40:37.447Z,13.16
2017-05-25T00:41:18.347Z,13.19
2017-05-25T00:41:59.232Z,13.16
2017-05-25T00:42:40.146Z,13.16
2017-05-25T00:43:21.041Z,13.18
2017-05-25T00:44:01.911Z,13.15
2017-05-25T00:44:42.800Z,13.13
2017-05-25T00:45:24.422Z,13.16
2017-05-25T00:46:05.324Z,13.11
2017-05-25T00:46:46.228Z,13.13
2017-05-25T00:47:27.121Z,13.16
2017-05-25T00:48:07.996Z,13.16
2017-05-25T00:48:48.893Z,13.15
2017-05-25T00:49:29.787Z,13.15
2017-05-25T00:50:10.677Z,13.15
2017-05-25T00:50:51.567Z,13.08
2017-05-25T00:51:32.450Z,13.09
2017-05-25T00:52:13.318Z,13.09
2017-05-25T00:52:54.210Z,13.09
2017-05-25T00:53:35.107Z,13.05
2017-05-25T00:54:16.931Z,13.04
2017-05-25T00:54:57.811Z,13.05
2017-05-25T00:55:38.697Z,13.03
2017-05-25T00:56:19.584Z,13.01
2017-05-25T00:57:00.468Z,13.01
2017-05-25T00:57:41.351Z,13.09
2017-05-25T00:58:22.298Z,12.95
2017-05-25T00:59:03.161Z,12.98
2017-05-25T00:59:44.067Z,12.94
2017-05-25T01:00:24.954Z,12.98
2017-05-25T01:01:05.867Z,12.97
2017-05-25T01:01:46.755Z,12.97
2017-05-25T01:02:27.645Z,12.95
2017-05-25T01:03:08.515Z,12.97
2017-05-25T01:03:49.420Z,12.95
2017-05-25T01:04:30.316Z,12.95
2017-05-25T01:05:11.184Z,12.95
2017-05-25T01:05:52.094Z,12.94
2017-05-25T01:06:32.983Z,12.91
2017-05-25T01:07:13.865Z,12.94
2017-05-25T01:07:54.754Z,12.91
2017-05-25T01:08:35.645Z,12.94
2017-05-25T01:09:16.547Z,12.91
2017-05-25T01:09:57.457Z,12.9
2017-05-25T01:10:38.389Z,12.9
2017-05-25T01:12:16.717Z,12.86
2017-05-25T01:12:57.595Z,12.83
2017-05-25T01:13:38.478Z,12.83
2017-05-25T01:14:19.369Z,12.91
2017-05-25T01:15:00.257Z,12.8
2017-05-25T01:15:41.164Z,12.8
2017-05-25T01:16:22.055Z,12.78
2017-05-25T01:17:02.933Z,12.93
2017-05-25T01:17:43.822Z,12.9
2017-05-25T01:18:24.715Z,12.86
2017-05-25T01:19:05.605Z,12.76
2017-05-25T01:19:46.503Z,12.85
2017-05-25T01:20:27.390Z,12.82
2017-05-25T01:21:08.283Z,12.83
2017-05-25T01:21:49.164Z,12.85
2017-05-25T01:22:30.037Z,12.82
2017-05-25T01:23:10.919Z,12.8
2017-05-25T01:23:51.814Z,12.7
2017-05-25T01:24:32.697Z,12.76
2017-05-25T01:25:13.635Z,12.67
2017-05-25T01:25:54.473Z,12.72
2017-05-25T01:26:35.402Z,12.75
2017-05-25T01:27:16.306Z,12.79
2017-05-25T01:27:57.190Z,12.83
2017-05-25T01:28:38.068Z,12.82
2017-05-25T01:29:18.954Z,12.85
2017-05-25T01:29:59.840Z,12.78
2017-05-25T01:30:40.725Z,12.7
2017-05-25T01:31:21.630Z,12.68
2017-05-25T01:32:02.523Z,12.7
2017-05-25T01:32:43.413Z,12.72
2017-05-25T01:33:24.310Z,12.78
2017-05-25T01:34:05.219Z,12.83
2017-05-25T01:34:46.087Z,12.73
2017-05-25T01:35:26.996Z,12.7
2017-05-25T01:36:07.907Z,12.67
2017-05-25T01:36:48.794Z,12.67
2017-05-25T01:37:29.688Z,12.61
2017-05-25T01:38:10.575Z,12.62
2017-05-25T01:38:51.468Z,12.65
2017-05-25T01:39:32.337Z,12.67
2017-05-25T01:40:13.227Z,12.72
2017-05-25T01:40:54.117Z,12.68
2017-05-25T01:41:35.016Z,12.67
2017-05-25T01:42:15.904Z,12.68
2017-05-25T01:42:56.790Z,12.68
2017-05-25T01:43:37.684Z,12.64
2017-05-25T01:44:18.590Z,12.64
2017-05-25T01:44:59.487Z,12.65
2017-05-25T01:45:40.391Z,12.67
2017-05-25T01:46:21.274Z,12.57
2017-05-25T01:47:02.146Z,12.62
2017-05-25T01:47:43.035Z,12.67
2017-05-25T01:48:23.926Z,12.68
2017-05-25T01:49:04.818Z,12.62
2017-05-25T01:49:45.668Z,12.73
2017-05-25T01:50:26.573Z,12.68
2017-05-25T01:51:07.458Z,12.73
2017-05-25T01:51:48.357Z,12.68
2017-05-25T01:52:29.247Z,12.61
2017-05-25T01:53:10.145Z,12.6
2017-05-25T01:53:51.030Z,12.64
2017-05-25T01:54:31.922Z,12.72
2017-05-25T01:55:12.837Z,12.57
2017-05-25T01:55:53.701Z,12.65
2017-05-25T01:56:34.593Z,12.57
2017-05-25T01:57:15.503Z,12.62
2017-05-25T01:57:56.381Z,12.58
2017-05-25T01:58:37.276Z,12.53
2017-05-25T01:59:18.172Z,12.54
2017-05-25T01:59:59.050Z,12.57
2017-05-25T02:00:39.952Z,12.62
2017-05-25T02:01:20.927Z,12.58
2017-05-25T02:02:01.817Z,12.58
2017-05-25T02:02:42.696Z,12.55
2017-05-25T02:03:23.591Z,12.53
2017-05-25T02:04:04.479Z,12.61
2017-05-25T02:04:45.382Z,12.57
2017-05-25T02:05:26.261Z,12.5
2017-05-25T02:06:07.167Z,12.45
2017-05-25T02:06:48.048Z,12.5
2017-05-25T02:07:28.936Z,12.57
2017-05-25T02:08:09.869Z,12.54
2017-05-25T02:08:50.765Z,12.43
2017-05-25T02:09:31.657Z,12.46
2017-05-25T02:10:12.544Z,12.45
2017-05-25T02:10:53.420Z,12.4
2017-05-25T02:11:34.352Z,12.5
2017-05-25T02:12:15.214Z,12.5
2017-05-25T02:12:56.098Z,12.43
2017-05-25T02:13:37.003Z,12.46
2017-05-25T02:14:17.901Z,12.43
2017-05-25T02:14:58.805Z,12.5
2017-05-25T02:15:39.691Z,12.46
2017-05-25T02:16:20.570Z,12.45
2017-05-25T02:17:01.484Z,12.49
2017-05-25T02:17:42.383Z,12.46
2017-05-25T02:18:23.270Z,12.5
2017-05-25T02:19:04.171Z,12.46
2017-05-25T02:19:45.054Z,12.46
2017-05-25T02:20:25.942Z,12.47
2017-05-25T02:21:06.839Z,12.42
2017-05-25T02:22:34.948Z,12.43
2017-05-25T02:23:15.840Z,12.4
2017-05-25T02:23:56.732Z,12.36
2017-05-25T02:24:37.643Z,12.28
2017-05-25T02:25:18.540Z,12.39
2017-05-25T02:25:59.428Z,12.36
2017-05-25T02:26:40.321Z,12.37
2017-05-25T02:27:21.224Z,12.36
2017-05-25T02:28:02.103Z,12.39
2017-05-25T02:28:42.988Z,12.39
2017-05-25T02:29:23.902Z,12.37
2017-05-25T02:30:04.799Z,12.31
2017-05-25T02:30:45.692Z,12.27
2017-05-25T02:31:26.581Z,12.28
2017-05-25T02:32:07.469Z,12.35
2017-05-25T02:32:48.346Z,12.22
2017-05-25T02:33:29.235Z,12.28
2017-05-25T02:34:10.203Z,12.27
2017-05-25T02:34:51.084Z,12.24
2017-05-25T02:35:31.963Z,12.28
2017-05-25T02:36:12.859Z,12.2
2017-05-25T02:36:53.750Z,12.25
2017-05-25T02:37:34.631Z,12.2
2017-05-25T02:38:15.512Z,12.15
2017-05-25T02:38:56.404Z,12.24
2017-05-25T02:39:37.349Z,12.24
2017-05-25T02:40:18.238Z,12.21
2017-05-25T02:40:59.150Z,12.22
2017-05-25T02:41:40.037Z,12.18
2017-05-25T02:42:20.927Z,12.1
2017-05-25T02:43:01.807Z,12.21
2017-05-25T02:43:42.685Z,12.04
2017-05-25T02:44:23.568Z,12.21
2017-05-25T02:45:04.451Z,12.1
2017-05-25T02:45:45.339Z,12.1
2017-05-25T02:46:26.224Z,12.21
2017-05-25T02:47:07.133Z,12.06
2017-05-25T02:47:48.015Z,12.13
2017-05-25T02:48:28.914Z,12.02
2017-05-25T02:49:09.801Z,12.12
2017-05-25T02:49:50.695Z,12.15
2017-05-25T02:50:31.580Z,12.18
2017-05-25T02:51:12.491Z,12.04
2017-05-25T02:51:53.370Z,12.04
2017-05-25T02:52:34.275Z,11.99
2017-05-25T02:53:15.189Z,12
2017-05-25T02:53:56.069Z,12.03
2017-05-25T02:54:36.976Z,11.99
2017-05-25T02:55:17.855Z,12.04
2017-05-25T02:55:58.778Z,12.03
2017-05-25T02:56:39.670Z,11.99
2017-05-25T02:57:20.539Z,12.02
2017-05-25T02:58:01.434Z,12.06
2017-05-25T02:58:42.433Z,11.99
2017-05-25T02:59:23.339Z,12.07
2017-05-25T03:00:04.225Z,12.17
2017-05-25T03:00:45.129Z,12.13
2017-05-25T03:01:26.020Z,11.99
2017-05-25T03:02:06.924Z,12
2017-05-25T03:02:47.812Z,12.06
2017-05-25T03:03:28.706Z,12.02
2017-05-25T03:04:09.611Z,12.04
2017-05-25T03:04:50.480Z,12.02
2017-05-25T03:05:31.375Z,12.04
2017-05-25T03:06:12.253Z,11.97
2017-05-25T03:06:53.717Z,11.95
2017-05-25T03:07:34.624Z,11.99
2017-05-25T03:08:15.511Z,11.9
2017-05-25T03:08:56.401Z,11.91
2017-05-25T03:09:37.303Z,11.9
2017-05-25T03:10:18.187Z,11.88
2017-05-25T03:10:59.091Z,12.02
2017-05-25T03:11:39.974Z,11.95
2017-05-25T03:12:20.857Z,11.81
2017-05-25T03:13:01.901Z,11.84
2017-05-25T03:13:42.699Z,12.02
2017-05-25T03:14:23.583Z,11.86
2017-05-25T03:15:04.464Z,11.88
2017-05-25T03:15:45.345Z,11.87
2017-05-25T03:16:26.247Z,11.87
2017-05-25T03:17:07.140Z,11.95
2017-05-25T03:17:48.014Z,11.9
2017-05-25T03:18:28.919Z,11.75
2017-05-25T03:19:09.803Z,11.88
2017-05-25T03:19:50.684Z,11.86
2017-05-25T03:20:31.560Z,11.86
2017-05-25T03:21:12.452Z,11.84
2017-05-25T03:21:53.373Z,11.9
2017-05-25T03:22:34.285Z,11.9
2017-05-25T03:23:15.175Z,11.88
2017-05-25T03:23:56.061Z,11.97
2017-05-25T03:24:36.951Z,11.94
2017-05-25T03:25:17.844Z,11.84
2017-05-25T03:25:58.730Z,11.94
2017-05-25T03:26:39.626Z,11.84
2017-05-25T03:27:20.508Z,11.86
2017-05-25T03:28:01.386Z,11.88
2017-05-25T03:28:42.287Z,12
2017-05-25T03:29:23.182Z,11.91
2017-05-25T03:30:04.066Z,11.97
2017-05-25T03:30:44.944Z,11.86
2017-05-25T03:31:25.835Z,11.9
2017-05-25T03:32:06.729Z,11.88
2017-05-25T03:32:47.598Z,11.9
2017-05-25T03:33:28.500Z,12.03
2017-05-25T03:34:09.378Z,11.95
2017-05-25T03:34:50.253Z,11.95
2017-05-25T03:35:31.149Z,11.97
2017-05-25T03:36:12.043Z,11.99
2017-05-25T03:36:52.939Z,11.88
2017-05-25T03:37:33.820Z,11.91
2017-05-25T03:38:14.712Z,11.88
2017-05-25T03:38:55.603Z,11.87
2017-05-25T03:39:36.546Z,11.95
2017-05-25T03:40:17.443Z,11.94
2017-05-25T03:40:58.337Z,11.9
2017-05-25T03:41:39.530Z,11.87
2017-05-25T03:42:20.419Z,11.86
2017-05-25T03:43:01.283Z,11.94
2017-05-25T03:43:42.192Z,11.88
2017-05-25T03:44:23.075Z,11.88
2017-05-25T03:45:03.949Z,11.86
2017-05-25T03:45:44.889Z,11.94
2017-05-25T03:46:25.726Z,11.91
2017-05-25T03:47:06.653Z,11.87
2017-05-25T03:47:47.541Z,11.83
2017-05-25T03:48:28.419Z,11.88
2017-05-25T03:49:09.308Z,11.95
2017-05-25T03:49:50.184Z,11.84
2017-05-25T03:50:31.111Z,11.84
2017-05-25T03:51:12.089Z,11.9
2017-05-25T03:51:52.994Z,11.88
2017-05-25T03:52:33.906Z,11.84
2017-05-25T03:53:14.780Z,11.87
2017-05-25T03:53:55.673Z,11.91
2017-05-25T03:54:36.555Z,11.94
2017-05-25T03:55:17.436Z,12.03
2017-05-25T03:55:58.321Z,11.88
2017-05-25T03:56:39.208Z,11.81
2017-05-25T03:57:20.099Z,11.84
2017-05-25T03:58:00.999Z,11.86
2017-05-25T03:58:41.893Z,11.9
2017-05-25T03:59:22.774Z,11.94
2017-05-25T04:00:03.664Z,11.95
2017-05-25T04:00:44.556Z,12.09
2017-05-25T04:01:25.451Z,12.07
2017-05-25T04:02:06.343Z,12.12
2017-05-25T04:02:47.236Z,12.06
2017-05-25T04:03:28.175Z,12.12
2017-05-25T04:04:09.066Z,12.12
2017-05-25T04:04:49.956Z,12.06
2017-05-25T04:05:30.859Z,12.09
2017-05-25T04:06:11.717Z,12.1
2017-05-25T04:06:52.614Z,12.1
2017-05-25T04:07:33.499Z,12.06
2017-05-25T04:08:14.371Z,12.07
2017-05-25T04:08:55.282Z,12.13
2017-05-25T04:09:36.186Z,12.21
2017-05-25T04:10:17.050Z,12.17
2017-05-25T04:10:57.951Z,12.27
2017-05-25T04:11:38.825Z,12.27
2017-05-25T04:12:19.714Z,12.25
2017-05-25T04:13:00.635Z,12.21
2017-05-25T04:13:41.514Z,12.25
2017-05-25T04:14:22.396Z,12.18
2017-05-25T04:15:03.336Z,12.21
2017-05-25T04:15:44.230Z,12.2
2017-05-25T04:16:25.107Z,12.22
2017-05-25T04:17:06.028Z,12.2
2017-05-25T04:17:46.923Z,12.25
2017-05-25T04:18:27.801Z,12.25
2017-05-25T04:19:08.689Z,12.21
2017-05-25T04:19:49.565Z,12.21
2017-05-25T04:20:30.451Z,12.2
2017-05-25T04:21:11.337Z,12.24
2017-05-25T04:21:52.224Z,12.27
2017-05-25T04:22:33.098Z,12.25
2017-05-25T04:23:13.993Z,12.2
2017-05-25T04:23:54.877Z,12.21
2017-05-25T04:24:35.763Z,12.24
2017-05-25T04:25:16.645Z,12.21
2017-05-25T04:25:57.543Z,12.17
2017-05-25T04:26:38.431Z,12.25
2017-05-25T04:27:19.319Z,12.12
2017-05-25T04:28:00.231Z,12.24
2017-05-25T04:28:41.174Z,12.2
2017-05-25T04:29:22.130Z,12.27
2017-05-25T04:30:03.020Z,12.25
2017-05-25T04:30:43.915Z,12.25
2017-05-25T04:31:24.843Z,12.29
2017-05-25T04:32:05.766Z,12.25
2017-05-25T04:32:46.666Z,12.28
2017-05-25T04:33:27.547Z,12.24
2017-05-25T04:34:08.443Z,12.21
2017-05-25T04:34:49.351Z,12.28
2017-05-25T04:35:30.272Z,12.17
2017-05-25T04:36:11.137Z,12.32
2017-05-25T04:36:52.011Z,12.2
2017-05-25T04:37:33.002Z,12.22
2017-05-25T04:38:13.920Z,12.25
2017-05-25T04:38:54.797Z,12.35
2017-05-25T04:39:35.674Z,12.39
2017-05-25T04:40:16.559Z,12.32
2017-05-25T04:40:57.454Z,12.35
2017-05-25T04:41:38.352Z,12.28
2017-05-25T04:42:19.233Z,12.29
2017-05-25T04:43:00.130Z,12.32
2017-05-25T04:43:41.016Z,12.37
2017-05-25T04:44:21.906Z,12.37
2017-05-25T04:45:02.792Z,12.31
2017-05-25T04:45:43.695Z,12.35
2017-05-25T04:46:24.578Z,12.37
2017-05-25T04:47:05.469Z,12.36
2017-05-25T04:47:46.370Z,12.46
2017-05-25T04:48:27.257Z,12.42
2017-05-25T04:49:08.144Z,12.36
2017-05-25T04:50:41.436Z,12.35
2017-05-25T04:51:22.321Z,12.43
2017-05-25T04:52:03.203Z,12.29
2017-05-25T04:52:44.094Z,12.29
2017-05-25T04:53:24.979Z,12.37
2017-05-25T04:54:05.865Z,12.37
2017-05-25T04:54:46.751Z,12.37
2017-05-25T04:55:27.640Z,12.47
2017-05-25T04:56:08.534Z,12.5
2017-05-25T04:56:49.409Z,12.43
2017-05-25T04:57:30.294Z,12.5
2017-05-25T04:58:11.207Z,12.49
2017-05-25T04:58:52.093Z,12.45
2017-05-25T04:59:32.985Z,12.53
2017-05-25T05:00:13.876Z,12.57
2017-05-25T05:00:54.763Z,12.49
2017-05-25T05:01:35.662Z,12.42
2017-05-25T05:02:16.567Z,12.58
2017-05-25T05:02:57.455Z,12.64
2017-05-25T05:03:38.406Z,12.54
2017-05-25T05:04:19.310Z,12.5
2017-05-25T05:05:00.181Z,12.49
2017-05-25T05:05:41.062Z,12.5
2017-05-25T05:06:21.969Z,12.54
2017-05-25T05:07:02.852Z,12.47
2017-05-25T05:07:43.755Z,12.6
2017-05-25T05:08:24.643Z,12.75
2017-05-25T05:09:05.531Z,12.75
2017-05-25T05:09:46.425Z,12.72
2017-05-25T05:10:27.318Z,12.73
2017-05-25T05:11:08.214Z,12.65
2017-05-25T05:11:49.102Z,12.73
2017-05-25T05:12:29.994Z,12.68
2017-05-25T05:13:10.914Z,12.67
2017-05-25T05:13:51.783Z,12.6
2017-05-25T05:14:32.670Z,12.55
2017-05-25T05:15:13.565Z,12.58
2017-05-25T05:15:54.455Z,12.67
2017-05-25T05:16:35.346Z,12.65
2017-05-25T05:17:16.236Z,12.72
2017-05-25T05:17:57.129Z,12.7
2017-05-25T05:18:38.021Z,12.85
2017-05-25T05:19:18.916Z,12.76
2017-05-25T05:19:59.809Z,12.8
2017-05-25T05:20:40.694Z,12.83
2017-05-25T05:21:21.581Z,12.8
2017-05-25T05:22:02.462Z,12.87
2017-05-25T05:22:43.339Z,12.91
2017-05-25T05:23:24.229Z,12.87
2017-05-25T05:24:05.113Z,12.91
2017-05-25T05:24:45.999Z,12.95
2017-05-25T05:25:26.884Z,13.09
2017-05-25T05:26:07.772Z,13.05
2017-05-25T05:26:48.661Z,13
2017-05-25T05:27:29.555Z,13.01
2017-05-25T05:28:10.511Z,13.09
2017-05-25T05:28:51.402Z,13.03
2017-05-25T05:29:32.312Z,13.11
2017-05-25T05:30:13.201Z,13.08
2017-05-25T05:30:54.088Z,13.08
2017-05-25T05:31:34.990Z,13.15
2017-05-25T05:32:15.869Z,13.13
2017-05-25T05:32:56.754Z,13.28
2017-05-25T05:33:37.642Z,13.31
2017-05-25T05:34:18.554Z,13.22
2017-05-25T05:34:59.437Z,13.35
2017-05-25T05:35:40.321Z,13.41
2017-05-25T05:36:21.203Z,13.44
2017-05-25T05:37:02.085Z,13.31
2017-05-25T05:37:42.985Z,13.42
2017-05-25T05:38:23.878Z,13.46
2017-05-25T05:39:04.767Z,13.31
2017-05-25T05:39:45.756Z,13.39
2017-05-25T05:40:26.665Z,13.22
2017-05-25T05:41:07.543Z,13.2
2017-05-25T05:41:48.457Z,13.18
2017-05-25T05:42:29.326Z,13.28
2017-05-25T05:43:10.209Z,13.19
2017-05-25T05:43:51.100Z,13.28
2017-05-25T05:44:32.003Z,13.39
2017-05-25T05:45:12.888Z,13.47
2017-05-25T05:45:53.772Z,13.42
2017-05-25T05:46:34.750Z,13.23
2017-05-25T05:47:16.332Z,13.28
2017-05-25T05:47:57.218Z,13.28
2017-05-25T05:48:38.115Z,13.2
2017-05-25T05:49:19.006Z,13.38
2017-05-25T05:49:59.913Z,13.46
2017-05-25T05:50:40.798Z,13.38
2017-05-25T05:51:21.685Z,13.5
2017-05-25T05:52:02.575Z,13.54
2017-05-25T05:52:43.466Z,13.65
2017-05-25T05:53:24.358Z,13.75
2017-05-25T05:54:05.251Z,13.74
2017-05-25T05:54:46.142Z,13.65
2017-05-25T05:55:27.058Z,13.74
2017-05-25T05:56:07.946Z,13.7
2017-05-25T05:56:48.833Z,13.71
2017-05-25T05:57:29.719Z,13.71
2017-05-25T05:58:10.621Z,13.83
2017-05-25T05:58:51.504Z,13.97
2017-05-25T05:59:32.396Z,14.11
2017-05-25T06:00:13.279Z,14.2
2017-05-25T06:00:54.164Z,14.26
2017-05-25T06:01:35.054Z,14.07
2017-05-25T06:02:15.944Z,14
2017-05-25T06:02:56.843Z,13.87
2017-05-25T06:03:37.737Z,13.93
2017-05-25T06:04:18.620Z,13.89
2017-05-25T06:04:59.511Z,13.9
2017-05-25T06:05:40.405Z,13.92
2017-05-25T06:06:21.285Z,14
2017-05-25T06:07:02.173Z,13.93
2017-05-25T06:07:43.098Z,14.03
2017-05-25T06:08:23.965Z,14.11
2017-05-25T06:09:04.898Z,13.92
2017-05-25T06:09:45.730Z,14.08
2017-05-25T06:10:26.624Z,14.11
2017-05-25T06:11:07.515Z,14.18
2017-05-25T06:11:48.414Z,14.25
2017-05-25T06:12:29.334Z,14.18
2017-05-25T06:13:10.205Z,14.48
2017-05-25T06:13:51.088Z,14.6
2017-05-25T06:14:31.978Z,14.69
2017-05-25T06:15:12.868Z,14.96
2017-05-25T06:15:53.815Z,15.29
2017-05-25T06:16:34.706Z,15.65
2017-05-25T06:17:15.607Z,15.59
2017-05-25T06:17:56.502Z,15.59
2017-05-25T06:18:37.383Z,15.9
2017-05-25T06:19:18.277Z,16.49
2017-05-25T06:19:59.162Z,17.04
2017-05-25T06:20:40.046Z,17.63
2017-05-25T06:21:20.935Z,17.82
2017-05-25T06:22:01.831Z,17.05
2017-05-25T06:22:42.785Z,17.74
2017-05-25T06:23:23.602Z,18.11
2017-05-25T06:24:04.501Z,18.56
2017-05-25T06:24:45.398Z,18.53
2017-05-25T06:25:26.286Z,18.05
2017-05-25T06:26:07.202Z,18.04
2017-05-25T06:26:48.101Z,17.65
2017-05-25T06:27:29.001Z,17.24
2017-05-25T06:28:09.897Z,17.38
2017-05-25T06:28:50.797Z,17.33
2017-05-25T06:29:31.697Z,17.11
2017-05-25T06:30:12.587Z,16.53
2017-05-25T06:30:53.479Z,16.69
2017-05-25T06:31:34.384Z,16.57
2017-05-25T06:32:15.264Z,16.71
2017-05-25T06:32:56.296Z,16.46
2017-05-25T06:33:37.184Z,16.35
2017-05-25T06:34:18.090Z,16.65
2017-05-25T06:34:58.981Z,16.76
2017-05-25T06:35:39.886Z,16.64
2017-05-25T06:36:20.793Z,17.31
2017-05-25T06:37:01.686Z,16.96
2017-05-25T06:37:42.610Z,16.81
2017-05-25T06:38:23.487Z,16.65
2017-05-25T06:39:04.380Z,16.94
2017-05-25T06:39:45.276Z,17.06
2017-05-25T06:40:26.181Z,17.23
2017-05-25T06:41:07.077Z,18.16
2017-05-25T06:41:47.965Z,18
2017-05-25T06:42:28.858Z,17.34
2017-05-25T06:43:09.769Z,17.23
2017-05-25T06:43:50.675Z,16.94
2017-05-25T06:44:31.589Z,17.48
2017-05-25T06:45:12.496Z,17.6
2017-05-25T06:45:53.397Z,17.29
2017-05-25T06:46:34.298Z,17.95
2017-05-25T06:47:15.196Z,17.98
2017-05-25T06:47:56.093Z,18.2
2017-05-25T06:48:36.976Z,18.74
2017-05-25T06:49:17.884Z,19.81
2017-05-25T06:49:58.774Z,20.52
2017-05-25T06:50:39.678Z,20.99
2017-05-25T06:51:20.586Z,21.12
2017-05-25T06:52:01.471Z,21.39
2017-05-25T06:52:42.383Z,21.62
2017-05-25T06:53:23.285Z,21.69
2017-05-25T06:54:04.184Z,21.62
2017-05-25T06:54:45.081Z,21.48
2017-05-25T06:55:25.989Z,19.51
2017-05-25T06:56:06.905Z,19.26
2017-05-25T06:56:47.842Z,19.04
2017-05-25T06:57:28.740Z,17.71
2017-05-25T06:58:09.637Z,18.1
2017-05-25T06:58:50.526Z,17.87
2017-05-25T06:59:31.423Z,17.95
2017-05-25T07:00:12.357Z,18.26
2017-05-25T07:00:53.270Z,18.49
2017-05-25T07:01:34.196Z,18.81
2017-05-25T07:02:15.096Z,18.93
2017-05-25T07:02:55.992Z,18.59
2017-05-25T07:03:36.904Z,18.33
2017-05-25T07:04:17.808Z,18.03
2017-05-25T07:04:58.698Z,18.63
2017-05-25T07:05:39.650Z,18.55
2017-05-25T07:07:33.226Z,18.2
2017-05-25T07:08:14.122Z,18.49
2017-05-25T07:08:55.058Z,19.44
2017-05-25T07:09:36.078Z,20.56
2017-05-25T07:10:16.982Z,20.22
2017-05-25T07:10:57.880Z,20.24
2017-05-25T07:11:38.840Z,20.06
2017-05-25T07:12:19.798Z,20.55
2017-05-25T07:13:00.683Z,21.32
2017-05-25T07:13:41.623Z,21.62
2017-05-25T07:14:22.508Z,21.37
2017-05-25T07:15:03.412Z,20.32
2017-05-25T07:15:44.306Z,19.56
2017-05-25T07:16:25.264Z,19.02
2017-05-25T07:17:06.173Z,19.19
2017-05-25T07:17:47.080Z,19.76
2017-05-25T07:18:28.003Z,19.79
2017-05-25T07:19:08.895Z,19.94
2017-05-25T07:19:49.793Z,20.56
2017-05-25T07:20:30.697Z,21.27
2017-05-25T07:21:11.602Z,21.58
2017-05-25T07:21:52.521Z,21.33
2017-05-25T07:22:33.417Z,21.39
2017-05-25T07:23:14.313Z,21.76
2017-05-25T07:23:55.229Z,22.13
2017-05-25T07:24:36.128Z,22.51
2017-05-25T07:25:17.023Z,22.81
2017-05-25T07:25:57.929Z,22.88
2017-05-25T07:26:38.834Z,23.25
2017-05-25T07:27:19.733Z,23.37
2017-05-25T07:28:00.635Z,23.37
2017-05-25T07:28:41.544Z,22.51
2017-05-25T07:29:22.466Z,21.82
2017-05-25T07:30:03.363Z,21.99
2017-05-25T07:30:44.262Z,21.98
2017-05-25T07:31:25.165Z,21.21
2017-05-25T07:32:06.218Z,21.43
2017-05-25T07:32:47.165Z,21.3
2017-05-25T07:33:28.077Z,21.58
2017-05-25T07:34:08.970Z,22.23
2017-05-25T07:34:49.885Z,22.48
2017-05-25T07:35:30.797Z,22.63
2017-05-25T07:36:11.693Z,20.99
2017-05-25T07:36:52.607Z,20.18
2017-05-25T07:37:33.532Z,19.37
2017-05-25T07:38:14.456Z,19.09
2017-05-25T07:38:55.390Z,19.37
2017-05-25T07:39:36.299Z,19.18
2017-05-25T07:40:17.217Z,18.33
2017-05-25T07:40:58.116Z,18.31
2017-05-25T07:41:39.021Z,18.33
2017-05-25T07:42:19.933Z,18.58
2017-05-25T07:43:01.626Z,19.02
2017-05-25T07:44:19.591Z,19.36
2017-05-25T07:45:00.480Z,20.09
2017-05-25T07:45:41.459Z,19.59
2017-05-25T07:46:22.353Z,18.96
2017-05-25T07:47:03.311Z,19.14
2017-05-25T07:47:44.191Z,19.19
2017-05-25T07:48:25.075Z,19.58
2017-05-25T07:49:05.965Z,20.28
2017-05-25T07:49:46.865Z,21.18
2017-05-25T07:50:27.800Z,19.84
2017-05-25T07:51:08.719Z,19.24
2017-05-25T07:51:49.618Z,18.92
2017-05-25T07:52:30.540Z,19.04
2017-05-25T07:53:11.423Z,19.29
2017-05-25T07:53:52.347Z,19.29
2017-05-25T07:54:33.288Z,19.12
2017-05-25T07:55:14.191Z,19.33
2017-05-25T07:55:55.143Z,19.79
2017-05-25T07:56:36.067Z,19.24
2017-05-25T07:57:16.955Z,19.33
2017-05-25T07:57:57.871Z,19.24
2017-05-25T07:58:38.750Z,18.63
2017-05-25T07:59:19.655Z,18.86
2017-05-25T08:00:53.015Z,18.88
2017-05-25T08:01:33.963Z,19.12
2017-05-25T08:02:14.941Z,19.66
2017-05-25T08:02:55.857Z,20.19
2017-05-25T08:03:36.739Z,20.77
2017-05-25T08:04:17.649Z,20.74
2017-05-25T08:04:58.540Z,20.87
2017-05-25T08:05:39.501Z,20.81
2017-05-25T08:07:07.671Z,20.39
2017-05-25T08:07:48.561Z,20.24
2017-05-25T08:08:29.448Z,19.67
2017-05-25T08:09:10.373Z,19.64
2017-05-25T08:09:51.266Z,19.55
2017-05-25T08:10:32.161Z,19.73
2017-05-25T08:11:13.118Z,19.36
2017-05-25T08:11:54.027Z,19.88
2017-05-25T08:13:11.922Z,18.88
2017-05-25T08:13:52.852Z,18.25
2017-05-25T08:14:33.723Z,18.1
2017-05-25T08:15:14.621Z,17.76
2017-05-25T08:15:55.539Z,17.7
2017-05-25T08:16:36.426Z,18.47
2017-05-25T08:17:17.347Z,19.07
2017-05-25T08:17:58.257Z,19.73
2017-05-25T08:18:39.167Z,20.41
2017-05-25T08:19:20.093Z,20.87
2017-05-25T08:20:00.986Z,21.29
2017-05-25T08:20:41.875Z,21.39
2017-05-25T08:21:22.783Z,21.32
2017-05-25T08:22:03.667Z,20.62
2017-05-25T08:22:44.565Z,20.13
2017-05-25T08:23:25.466Z,19.94
2017-05-25T08:24:06.353Z,19.89
2017-05-25T08:24:47.282Z,19.44
2017-05-25T08:25:28.183Z,20.43
2017-05-25T08:26:09.074Z,21.27
2017-05-25T08:26:49.997Z,20.34
2017-05-25T08:27:30.882Z,20.32
2017-05-25T08:28:11.790Z,19.73
2017-05-25T08:28:52.692Z,19.52
2017-05-25T08:29:33.588Z,19.11
2017-05-25T08:30:14.515Z,19.02
2017-05-25T08:30:55.415Z,19.07
2017-05-25T08:31:36.307Z,18.77
2017-05-25T08:32:17.229Z,18.84
2017-05-25T08:33:55.713Z,19.11
2017-05-25T08:34:36.621Z,18.92
2017-05-25T08:35:17.508Z,18.73
2017-05-25T08:35:58.391Z,18.71
2017-05-25T08:36:39.283Z,18.65
2017-05-25T08:37:20.177Z,19.09
2017-05-25T08:38:01.065Z,18.83
2017-05-25T08:38:41.979Z,20.1
2017-05-25T08:39:22.856Z,20.14
2017-05-25T08:40:03.744Z,20.88
2017-05-25T08:40:44.662Z,20.28
2017-05-25T08:41:25.548Z,19.99
2017-05-25T08:42:06.454Z,19.56
2017-05-25T08:42:47.356Z,19.34
2017-05-25T08:43:28.282Z,19.62
2017-05-25T08:44:09.172Z,20.19
2017-05-25T08:44:50.050Z,21.02
2017-05-25T08:45:30.961Z,20.96
2017-05-25T08:46:11.882Z,20.93
2017-05-25T08:46:52.804Z,21.95
2017-05-25T08:47:33.703Z,22.44
2017-05-25T08:48:14.610Z,23.08
2017-05-25T08:48:55.513Z,23.87
2017-05-25T08:49:36.414Z,22.18
2017-05-25T08:50:17.298Z,21.7
2017-05-25T08:50:58.192Z,22.3
2017-05-25T08:51:39.097Z,21.37
2017-05-25T08:52:19.978Z,20.19
2017-05-25T08:53:00.870Z,20.48
2017-05-25T08:53:41.761Z,21.4
2017-05-25T08:54:22.656Z,21.27
2017-05-25T08:55:03.575Z,20.31
2017-05-25T08:56:57.245Z,20.07
2017-05-25T08:57:38.138Z,19.22
2017-05-25T08:58:19.060Z,19.26
2017-05-25T08:58:59.974Z,19.82
2017-05-25T08:59:40.876Z,19.27
2017-05-25T09:00:21.781Z,18.9